Time;durP1;ratioP1;P1;durP2;ratioP2;P2;SDS_P1;SDS_P2;PMS_P1;PMS_P2;Temp;Humidity;BMP_temperature;BMP_pressure;BME280_temperature;BME280_humidity;BME280_pressure;Samples;Min_cycle;Max_cycle;Signal;HPM_P1;HPM_P2
2023/05/21 00:02:16;;;;;;;25.45;12.43;;;;;;;;;;7374786;19;20019;-70
2023/05/21 00:04:42;;;;;;;19.92;11.93;;;;;;;;;;7374133;19;20496;-72
2023/05/21 00:07:08;;;;;;;23.92;12.55;;;;;;;;;;7386610;19;20014;-69
2023/05/21 00:09:35;;;;;;;21.33;12.43;;;;;;;;;;7385127;19;20382;-71
2023/05/21 00:12:00;;;;;;;27.70;13.25;;;;;;;;;;7372036;19;20375;-71
2023/05/21 00:14:25;;;;;;;23.67;13.13;;;;;;;;;;7372945;19;20011;-72
2023/05/21 00:16:51;;;;;;;27.30;13.13;;;;;;;;;;7372748;19;20485;-71
2023/05/21 00:19:16;;;;;;;21.42;11.68;;;;;;;;;;7372385;19;19998;-71
2023/05/21 00:21:44;;;;;;;27.27;13.45;;;;;;;;;;7394349;19;20388;-70
2023/05/21 00:24:10;;;;;;;28.77;13.45;;;;;;;;;;7372809;19;20018;-71
2023/05/21 00:26:35;;;;;;;25.17;12.10;;;;;;;;;;7371856;19;20041;-70
2023/05/21 00:29:01;;;;;;;20.17;12.30;;;;;;;;;;7373677;19;20014;-71
2023/05/21 00:31:26;;;;;;;19.48;12.07;;;;;;;;;;7380998;19;19994;-70
2023/05/21 00:33:51;;;;;;;20.67;11.75;;;;;;;;;;7398434;19;20006;-70
2023/05/21 00:36:17;;;;;;;20.27;11.93;;;;;;;;;;7373822;19;20018;-71
2023/05/21 00:38:42;;;;;;;22.90;12.95;;;;;;;;;;7372863;19;20034;-70
2023/05/21 00:41:11;;;;;;;23.90;12.65;;;;;;;;;;7373248;19;20030;-70
2023/05/21 00:43:40;;;;;;;21.73;12.32;;;;;;;;;;7374068;19;20519;-71
2023/05/21 00:46:10;;;;;;;21.80;12.35;;;;;;;;;;7394861;19;20007;-71
2023/05/21 00:48:36;;;;;;;30.77;13.73;;;;;;;;;;7371791;19;20014;-71
2023/05/21 00:51:02;;;;;;;25.85;13.30;;;;;;;;;;7371947;19;20078;-71
2023/05/21 00:53:28;;;;;;;25.27;12.43;;;;;;;;;;7371659;19;20014;-71
2023/05/21 00:55:54;;;;;;;21.77;12.23;;;;;;;;;;7372974;19;20006;-71
2023/05/21 00:58:20;;;;;;;23.23;12.90;;;;;;;;;;7370123;19;20013;-71
2023/05/21 01:00:45;;;;;;;22.52;13.30;;;;;;;;;;7393610;19;20003;-71
2023/05/21 01:03:11;;;;;;;26.13;12.77;;;;;;;;;;7371591;19;20014;-70
2023/05/21 01:05:37;;;;;;;22.67;12.07;;;;;;;;;;7372276;19;20017;-70
2023/05/21 01:08:02;;;;;;;23.23;11.70;;;;;;;;;;7369328;19;20018;-70
2023/05/21 01:10:29;;;;;;;25.05;11.82;;;;;;;;;;7371650;19;20007;-70
2023/05/21 01:12:56;;;;;;;23.17;11.95;;;;;;;;;;7391515;19;20090;-71
2023/05/21 01:15:22;;;;;;;24.33;12.80;;;;;;;;;;7370929;19;20548;-70
2023/05/21 01:17:48;;;;;;;25.88;12.13;;;;;;;;;;7369236;19;20018;-70
2023/05/21 01:20:18;;;;;;;20.08;12.82;;;;;;;;;;7368851;19;20031;-70
2023/05/21 01:22:54;;;;;;;25.10;12.13;;;;;;;;;;7371515;19;20030;-70
2023/05/21 01:25:21;;;;;;;19.90;12.10;;;;;;;;;;7371807;19;20544;-70
2023/05/21 01:27:47;;;;;;;20.65;12.18;;;;;;;;;;7404612;19;19994;-70
2023/05/21 01:30:14;;;;;;;19.20;11.98;;;;;;;;;;7380717;19;20032;-70
2023/05/21 01:32:43;;;;;;;19.67;12.05;;;;;;;;;;7378078;19;20015;-70
2023/05/21 01:35:13;;;;;;;16.27;11.38;;;;;;;;;;7373726;19;20006;-70
2023/05/21 01:38:04;;;;;;;20.88;12.15;;;;;;;;;;7377379;19;20003;-70
2023/05/21 01:40:46;;;;;;;24.33;12.07;;;;;;;;;;7375735;19;20034;-70
2023/05/21 01:43:12;;;;;;;26.02;12.23;;;;;;;;;;7372435;19;20015;-70
2023/05/21 01:45:40;;;;;;;22.83;12.15;;;;;;;;;;7397339;19;20404;-70
2023/05/21 01:48:07;;;;;;;21.73;12.25;;;;;;;;;;7373094;19;20385;-70
2023/05/21 01:50:34;;;;;;;18.98;11.55;;;;;;;;;;7375044;19;20047;-70
2023/05/21 01:52:59;;;;;;;21.85;12.75;;;;;;;;;;7372395;19;20019;-70
2023/05/21 01:55:26;;;;;;;20.98;12.02;;;;;;;;;;7373664;19;20010;-70
2023/05/21 01:57:53;;;;;;;19.27;12.50;;;;;;;;;;7393113;19;20011;-71
2023/05/21 02:00:24;;;;;;;18.17;12.60;;;;;;;;;;7376399;19;20011;-70
2023/05/21 02:02:50;;;;;;;19.98;12.70;;;;;;;;;;7376909;19;20010;-70
2023/05/21 02:05:16;;;;;;;19.95;11.40;;;;;;;;;;7374855;19;20013;-71
2023/05/21 02:07:42;;;;;;;21.58;12.15;;;;;;;;;;7371071;19;20010;-70
2023/05/21 02:10:08;;;;;;;18.10;11.60;;;;;;;;;;7389902;19;20476;-70
2023/05/21 02:12:33;;;;;;;23.30;11.90;;;;;;;;;;7384815;19;20031;-71
2023/05/21 02:14:59;;;;;;;17.90;11.63;;;;;;;;;;7372775;19;20011;-70
2023/05/21 02:17:25;;;;;;;18.92;12.07;;;;;;;;;;7370598;19;20035;-70
2023/05/21 02:19:50;;;;;;;18.27;11.93;;;;;;;;;;7371677;19;20038;-70
2023/05/21 02:22:16;;;;;;;21.75;11.73;;;;;;;;;;7369321;19;20017;-70
2023/05/21 02:24:41;;;;;;;21.25;12.27;;;;;;;;;;7390472;19;20532;-70
2023/05/21 02:27:09;;;;;;;21.65;12.52;;;;;;;;;;7368136;19;20007;-70
2023/05/21 02:29:34;;;;;;;21.23;12.35;;;;;;;;;;7369458;19;20002;-70
2023/05/21 02:32:00;;;;;;;19.85;12.70;;;;;;;;;;7368371;19;20007;-70
2023/05/21 02:34:25;;;;;;;19.42;12.43;;;;;;;;;;7369287;19;20034;-70
2023/05/21 02:36:53;;;;;;;21.33;12.85;;;;;;;;;;7389620;19;20370;-70
2023/05/21 02:39:18;;;;;;;23.25;12.13;;;;;;;;;;7368074;19;20093;-70
2023/05/21 02:41:45;;;;;;;22.83;12.35;;;;;;;;;;7368295;19;20011;-70
2023/05/21 02:44:11;;;;;;;18.65;11.82;;;;;;;;;;7369621;19;20046;-70
2023/05/21 02:46:36;;;;;;;19.23;12.63;;;;;;;;;;7369380;19;20015;-70
2023/05/21 02:49:01;;;;;;;20.30;12.70;;;;;;;;;;7389567;19;20010;-70
2023/05/21 02:51:27;;;;;;;18.52;12.75;;;;;;;;;;7368904;19;20027;-70
2023/05/21 02:53:52;;;;;;;20.83;12.68;;;;;;;;;;7369495;19;20031;-70
2023/05/21 02:56:18;;;;;;;18.15;11.98;;;;;;;;;;7375286;19;20035;-70
2023/05/21 02:58:44;;;;;;;20.83;12.55;;;;;;;;;;7384261;19;20007;-70
2023/05/21 03:01:09;;;;;;;18.02;11.25;;;;;;;;;;7388762;19;20014;-70
2023/05/21 03:03:35;;;;;;;20.33;11.60;;;;;;;;;;7394497;19;20013;-70
2023/05/21 03:06:00;;;;;;;20.48;12.65;;;;;;;;;;7368266;19;20808;-70
2023/05/21 03:08:25;;;;;;;17.50;11.43;;;;;;;;;;7367432;19;20011;-71
2023/05/21 03:10:50;;;;;;;18.08;11.98;;;;;;;;;;7368833;19;20029;-70
2023/05/21 03:13:16;;;;;;;18.63;11.15;;;;;;;;;;7366238;19;20064;-70
2023/05/21 03:15:42;;;;;;;18.63;10.80;;;;;;;;;;7389932;19;20025;-71
2023/05/21 03:18:08;;;;;;;18.67;10.93;;;;;;;;;;7366427;19;20010;-71
2023/05/21 03:20:34;;;;;;;17.48;12.02;;;;;;;;;;7368450;19;20067;-70
2023/05/21 03:23:03;;;;;;;19.25;11.55;;;;;;;;;;7368344;19;20559;-71
2023/05/21 03:25:28;;;;;;;21.48;11.75;;;;;;;;;;7374420;19;20024;-70
2023/05/21 03:27:54;;;;;;;21.65;11.70;;;;;;;;;;7390565;19;20015;-71
2023/05/21 03:30:19;;;;;;;21.23;11.65;;;;;;;;;;7368596;19;20011;-70
2023/05/21 03:32:46;;;;;;;16.27;11.27;;;;;;;;;;7366535;19;20034;-70
2023/05/21 03:35:11;;;;;;;19.35;11.52;;;;;;;;;;7373335;19;20036;-71
2023/05/21 03:37:37;;;;;;;20.75;11.10;;;;;;;;;;7375896;19;20678;-70
2023/05/21 03:40:03;;;;;;;18.40;10.60;;;;;;;;;;7395021;19;19995;-70
2023/05/21 03:42:28;;;;;;;22.15;11.45;;;;;;;;;;7371362;19;20024;-70
2023/05/21 03:44:54;;;;;;;16.85;10.38;;;;;;;;;;7374094;19;20007;-71
2023/05/21 03:47:19;;;;;;;17.10;10.35;;;;;;;;;;7374076;19;20073;-70
2023/05/21 03:49:44;;;;;;;18.90;11.35;;;;;;;;;;7374444;19;20008;-69
2023/05/21 03:52:10;;;;;;;13.95;10.02;;;;;;;;;;7372415;19;20033;-69
2023/05/21 03:54:35;;;;;;;16.50;10.48;;;;;;;;;;7395992;19;20002;-69
2023/05/21 03:57:00;;;;;;;15.43;9.90;;;;;;;;;;7373223;19;19999;-69
2023/05/21 03:59:26;;;;;;;15.70;9.55;;;;;;;;;;7372520;19;20014;-69
2023/05/21 04:01:51;;;;;;;16.90;10.05;;;;;;;;;;7374130;19;20042;-70
2023/05/21 04:04:16;;;;;;;16.63;10.38;;;;;;;;;;7374033;19;20643;-69
2023/05/21 04:06:42;;;;;;;17.52;9.93;;;;;;;;;;7394718;19;20039;-69
2023/05/21 04:09:07;;;;;;;20.52;11.18;;;;;;;;;;7372326;19;20337;-70
2023/05/21 04:11:32;;;;;;;17.45;10.43;;;;;;;;;;7373331;19;20021;-70
2023/05/21 04:13:58;;;;;;;18.25;10.70;;;;;;;;;;7373517;19;20010;-70
2023/05/21 04:16:23;;;;;;;16.50;9.85;;;;;;;;;;7372787;19;20018;-70
2023/05/21 04:18:48;;;;;;;17.30;9.68;;;;;;;;;;7393668;19;19999;-70
2023/05/21 04:21:14;;;;;;;16.15;10.63;;;;;;;;;;7373337;19;20010;-70
2023/05/21 04:23:39;;;;;;;15.15;10.00;;;;;;;;;;7374869;19;20765;-70
2023/05/21 04:26:05;;;;;;;15.90;10.23;;;;;;;;;;7373731;19;20013;-70
2023/05/21 04:28:30;;;;;;;17.35;9.95;;;;;;;;;;7371842;19;20473;-70
2023/05/21 04:30:55;;;;;;;16.50;9.98;;;;;;;;;;7394499;19;20003;-70
2023/05/21 04:33:24;;;;;;;16.80;9.65;;;;;;;;;;7369676;19;20480;-70
2023/05/21 04:35:54;;;;;;;14.10;9.40;;;;;;;;;;7372086;19;20094;-69
2023/05/21 04:38:19;;;;;;;18.98;10.45;;;;;;;;;;7370461;19;20010;-69
2023/05/21 04:40:51;;;;;;;15.35;9.15;;;;;;;;;;7371676;19;20688;-70
2023/05/21 04:43:16;;;;;;;15.48;10.05;;;;;;;;;;7373807;19;20010;-69
2023/05/21 04:45:42;;;;;;;17.08;9.50;;;;;;;;;;7394937;19;20009;-70
2023/05/21 04:48:08;;;;;;;15.55;9.98;;;;;;;;;;7371664;19;20488;-70
2023/05/21 04:50:33;;;;;;;16.48;9.82;;;;;;;;;;7374849;19;20472;-70
2023/05/21 04:52:59;;;;;;;14.70;8.98;;;;;;;;;;7377859;19;20010;-70
2023/05/21 04:55:24;;;;;;;13.80;9.55;;;;;;;;;;7379223;19;20023;-70
2023/05/21 04:57:51;;;;;;;13.57;9.13;;;;;;;;;;7392743;19;20918;-70
2023/05/21 05:00:16;;;;;;;13.40;9.20;;;;;;;;;;7370749;19;20014;-70
2023/05/21 05:02:42;;;;;;;14.48;9.00;;;;;;;;;;7371839;19;20014;-70
2023/05/21 05:05:08;;;;;;;15.48;8.85;;;;;;;;;;7372331;19;20003;-70
2023/05/21 05:07:33;;;;;;;12.90;8.82;;;;;;;;;;7368967;19;20060;-58
2023/05/21 05:09:59;;;;;;;14.07;9.68;;;;;;;;;;7394589;19;20100;-56
2023/05/21 05:12:24;;;;;;;14.52;9.52;;;;;;;;;;7372317;19;20025;-57
2023/05/21 05:14:49;;;;;;;16.25;9.80;;;;;;;;;;7375405;19;20003;-54
2023/05/21 05:17:15;;;;;;;16.77;8.98;;;;;;;;;;7371682;19;20094;-56
2023/05/21 05:19:40;;;;;;;16.25;10.00;;;;;;;;;;7372923;19;20011;-57
2023/05/21 05:22:06;;;;;;;13.63;9.50;;;;;;;;;;7394273;19;20748;-56
2023/05/21 05:24:31;;;;;;;12.65;8.63;;;;;;;;;;7371851;19;20024;-55
2023/05/21 05:26:57;;;;;;;13.90;9.43;;;;;;;;;;7370992;19;20028;-56
2023/05/21 05:29:22;;;;;;;16.92;9.43;;;;;;;;;;7370937;19;20018;-54
2023/05/21 05:31:47;;;;;;;15.73;9.70;;;;;;;;;;7371731;19;20021;-56
2023/05/21 05:34:13;;;;;;;16.48;9.02;;;;;;;;;;7371635;19;20026;-56
2023/05/21 05:36:38;;;;;;;13.55;9.18;;;;;;;;;;7392865;19;19998;-56
2023/05/21 05:39:03;;;;;;;14.15;8.88;;;;;;;;;;7370570;19;20021;-55
2023/05/21 05:41:29;;;;;;;13.30;9.48;;;;;;;;;;7370795;19;20090;-55
2023/05/21 05:43:54;;;;;;;16.45;8.52;;;;;;;;;;7375988;19;20014;-53
2023/05/21 05:46:19;;;;;;;16.75;9.52;;;;;;;;;;7379236;19;20008;-53
2023/05/21 05:48:45;;;;;;;16.75;9.60;;;;;;;;;;7397129;19;20006;-55
2023/05/21 05:51:10;;;;;;;13.77;8.85;;;;;;;;;;7371377;19;20010;-55
2023/05/21 05:53:36;;;;;;;15.85;9.07;;;;;;;;;;7370237;19;20481;-54
2023/05/21 05:56:02;;;;;;;18.20;9.70;;;;;;;;;;7370621;19;20014;-52
2023/05/21 05:58:29;;;;;;;13.82;9.05;;;;;;;;;;7367749;19;20020;-53
2023/05/21 06:00:55;;;;;;;19.05;9.38;;;;;;;;;;7394947;19;20018;-68
2023/05/21 06:03:20;;;;;;;15.85;9.50;;;;;;;;;;7374524;19;20831;-68
2023/05/21 06:05:45;;;;;;;17.42;9.45;;;;;;;;;;7372488;19;20005;-68
2023/05/21 06:08:11;;;;;;;16.35;9.38;;;;;;;;;;7371108;19;20022;-69
2023/05/21 06:10:36;;;;;;;15.88;9.07;;;;;;;;;;7371047;19;20014;-68
2023/05/21 06:13:02;;;;;;;16.33;9.30;;;;;;;;;;7388889;19;20339;-69
2023/05/21 06:15:27;;;;;;;16.38;8.85;;;;;;;;;;7366579;19;20031;-68
2023/05/21 06:17:52;;;;;;;16.80;8.90;;;;;;;;;;7370518;19;20014;-68
2023/05/21 06:20:18;;;;;;;16.23;8.63;;;;;;;;;;7376165;19;20010;-67
2023/05/21 06:22:43;;;;;;;12.40;8.25;;;;;;;;;;7376392;19;20002;-67
2023/05/21 06:25:10;;;;;;;14.90;9.48;;;;;;;;;;7388229;19;20002;-67
2023/05/21 06:27:36;;;;;;;13.88;9.07;;;;;;;;;;7394110;19;20018;-69
2023/05/21 06:30:02;;;;;;;14.07;8.80;;;;;;;;;;7370110;19;20014;-71
2023/05/21 06:32:27;;;;;;;15.70;8.80;;;;;;;;;;7368199;19;20035;-68
2023/05/21 06:34:52;;;;;;;14.70;9.10;;;;;;;;;;7369745;19;20011;-68
2023/05/21 06:37:19;;;;;;;15.05;9.10;;;;;;;;;;7367183;19;20031;-67
2023/05/21 06:39:45;;;;;;;13.45;9.10;;;;;;;;;;7391206;19;20002;-68
2023/05/21 06:42:10;;;;;;;13.07;8.25;;;;;;;;;;7369360;19;20462;-68
2023/05/21 06:44:35;;;;;;;16.88;8.93;;;;;;;;;;7369027;19;20018;-68
2023/05/21 06:47:01;;;;;;;12.27;8.18;;;;;;;;;;7367678;19;20006;-68
2023/05/21 06:49:26;;;;;;;14.05;8.95;;;;;;;;;;7365684;19;20003;-68
2023/05/21 06:51:54;;;;;;;13.35;8.38;;;;;;;;;;7390354;19;20058;-68
2023/05/21 06:54:19;;;;;;;15.07;8.40;;;;;;;;;;7367908;19;20677;-68
2023/05/21 06:56:45;;;;;;;14.73;8.15;;;;;;;;;;7368467;19;20007;-68
2023/05/21 06:59:10;;;;;;;13.77;8.48;;;;;;;;;;7369625;19;20013;-68
2023/05/21 07:01:35;;;;;;;12.48;8.40;;;;;;;;;;7372724;19;20402;-68
2023/05/21 07:04:01;;;;;;;11.57;8.00;;;;;;;;;;7398573;19;20458;-68
2023/05/21 07:06:26;;;;;;;11.90;7.30;;;;;;;;;;7373020;19;20018;-67
2023/05/21 07:08:51;;;;;;;10.95;8.15;;;;;;;;;;7369175;19;20019;-67
2023/05/21 07:11:17;;;;;;;12.63;7.90;;;;;;;;;;7367721;19;20006;-68
2023/05/21 07:13:42;;;;;;;12.65;8.43;;;;;;;;;;7366458;19;20890;-67
2023/05/21 07:16:07;;;;;;;12.02;7.72;;;;;;;;;;7389944;19;20015;-67
2023/05/21 07:18:33;;;;;;;11.65;8.18;;;;;;;;;;7372452;19;20002;-68
2023/05/21 07:20:58;;;;;;;10.07;6.95;;;;;;;;;;7375699;19;20015;-68
2023/05/21 07:23:23;;;;;;;10.48;7.90;;;;;;;;;;7375451;19;20413;-68
2023/05/21 07:25:49;;;;;;;9.25;6.38;;;;;;;;;;7377494;19;20019;-67
2023/05/21 07:28:14;;;;;;;10.52;7.80;;;;;;;;;;7373306;19;20007;-67
2023/05/21 07:30:40;;;;;;;13.52;7.97;;;;;;;;;;7397967;19;20036;-67
2023/05/21 07:33:05;;;;;;;11.25;7.65;;;;;;;;;;7372959;19;20085;-67
2023/05/21 07:35:30;;;;;;;10.18;7.32;;;;;;;;;;7375291;19;20046;-68
2023/05/21 07:37:56;;;;;;;12.90;7.47;;;;;;;;;;7372287;19;20003;-67
2023/05/21 07:40:21;;;;;;;11.85;7.25;;;;;;;;;;7375003;19;20006;-68
2023/05/21 07:42:46;;;;;;;10.90;7.20;;;;;;;;;;7397683;19;19998;-69
2023/05/21 07:45:12;;;;;;;11.43;7.63;;;;;;;;;;7373831;19;20411;-68
2023/05/21 07:47:37;;;;;;;11.18;7.70;;;;;;;;;;7374773;19;20011;-67
2023/05/21 07:50:03;;;;;;;10.55;7.28;;;;;;;;;;7376073;19;20010;-68
2023/05/21 07:52:28;;;;;;;12.82;7.75;;;;;;;;;;7379436;19;19991;-67
2023/05/21 07:54:53;;;;;;;10.95;7.60;;;;;;;;;;7402997;19;20010;-68
2023/05/21 07:57:18;;;;;;;10.13;7.43;;;;;;;;;;7375766;19;20439;-68
2023/05/21 07:59:44;;;;;;;11.10;7.75;;;;;;;;;;7376464;19;20518;-68
2023/05/21 08:02:09;;;;;;;11.32;7.60;;;;;;;;;;7373874;19;20016;-68
2023/05/21 08:04:35;;;;;;;10.77;7.78;;;;;;;;;;7374395;19;20099;-68
2023/05/21 08:07:01;;;;;;;11.00;7.88;;;;;;;;;;7393756;19;19998;-68
2023/05/21 08:09:27;;;;;;;10.82;8.15;;;;;;;;;;7372428;19;20007;-69
2023/05/21 08:11:52;;;;;;;11.45;7.07;;;;;;;;;;7372401;19;20368;-68
2023/05/21 08:14:17;;;;;;;10.32;7.43;;;;;;;;;;7372441;19;20011;-68
2023/05/21 08:16:43;;;;;;;13.70;8.02;;;;;;;;;;7373315;19;20507;-68
2023/05/21 08:19:09;;;;;;;11.32;8.00;;;;;;;;;;7379665;19;20013;-68
2023/05/21 08:21:35;;;;;;;11.02;7.50;;;;;;;;;;7392243;19;19999;-68
2023/05/21 08:24:01;;;;;;;11.20;7.22;;;;;;;;;;7373889;19;20083;-68
2023/05/21 08:26:26;;;;;;;11.30;7.95;;;;;;;;;;7373011;19;20039;-68
2023/05/21 08:28:52;;;;;;;11.52;7.88;;;;;;;;;;7371559;19;20627;-69
2023/05/21 08:31:17;;;;;;;10.00;7.80;;;;;;;;;;7372638;19;20378;-67
2023/05/21 08:33:50;;;;;;;11.93;8.20;;;;;;;;;;7391567;19;19998;-68
2023/05/21 08:36:16;;;;;;;15.88;8.10;;;;;;;;;;7373978;19;20006;-68
2023/05/21 08:38:41;;;;;;;11.48;7.32;;;;;;;;;;7377535;19;20013;-69
2023/05/21 08:41:07;;;;;;;11.45;7.72;;;;;;;;;;7376362;19;20018;-67
2023/05/21 08:43:33;;;;;;;10.25;7.80;;;;;;;;;;7372859;19;20110;-68
2023/05/21 08:46:02;;;;;;;9.93;7.65;;;;;;;;;;7393057;19;20010;-69
2023/05/21 08:48:30;;;;;;;10.05;7.38;;;;;;;;;;7370936;19;20018;-70
2023/05/21 08:50:55;;;;;;;11.02;7.95;;;;;;;;;;7373160;19;20370;-68
2023/05/21 08:53:22;;;;;;;12.85;8.18;;;;;;;;;;7370800;19;20007;-68
2023/05/21 08:55:49;;;;;;;11.40;7.32;;;;;;;;;;7371052;19;20033;-68
2023/05/21 08:58:14;;;;;;;10.15;7.13;;;;;;;;;;7367852;19;20010;-68
2023/05/21 09:00:40;;;;;;;15.60;8.15;;;;;;;;;;7393443;19;20014;-69
2023/05/21 09:03:10;;;;;;;12.88;7.90;;;;;;;;;;7371964;19;20044;-69
2023/05/21 09:05:40;;;;;;;10.88;7.68;;;;;;;;;;7371446;19;20078;-69
2023/05/21 09:08:07;;;;;;;;;;;;;;;;;;7371518;19;20048;-68
2023/05/21 09:10:38;;;;;;;12.32;7.90;;;;;;;;;;7368858;19;19951;-68
2023/05/21 09:13:04;;;;;;;11.75;7.90;;;;;;;;;;7390423;19;20014;-68
2023/05/21 09:15:30;;;;;;;12.90;7.00;;;;;;;;;;7371660;19;20006;-68
2023/05/21 09:17:56;;;;;;;10.73;7.45;;;;;;;;;;7370123;19;20011;-68
2023/05/21 09:20:26;;;;;;;10.57;7.13;;;;;;;;;;7372408;19;20535;-68
2023/05/21 09:22:52;;;;;;;14.17;8.07;;;;;;;;;;7371087;19;20014;-68
2023/05/21 09:25:23;;;;;;;12.18;7.88;;;;;;;;;;7371130;19;20034;-68
2023/05/21 09:27:49;;;;;;;10.55;7.60;;;;;;;;;;7390265;19;20014;-68
2023/05/21 09:30:16;;;;;;;10.52;7.93;;;;;;;;;;7371248;19;20011;-68
2023/05/21 09:32:43;;;;;;;13.88;7.85;;;;;;;;;;7370527;19;20003;-68
2023/05/21 09:35:11;;;;;;;11.27;7.20;;;;;;;;;;7372722;19;20025;-69
2023/05/21 09:37:42;;;;;;;12.32;7.97;;;;;;;;;;7368819;19;20007;-68
2023/05/21 09:40:12;;;;;;;11.35;7.78;;;;;;;;;;7389748;19;20090;-67
2023/05/21 09:42:39;;;;;;;11.48;8.32;;;;;;;;;;7393772;19;20006;-68
2023/05/21 09:45:06;;;;;;;13.98;6.80;;;;;;;;;;7372316;19;20013;-69
2023/05/21 09:47:31;;;;;;;11.65;7.53;;;;;;;;;;7371567;19;20014;-68
2023/05/21 09:49:57;;;;;;;9.73;7.22;;;;;;;;;;7373279;19;20014;-68
2023/05/21 09:52:27;;;;;;;12.13;8.20;;;;;;;;;;7370758;19;20010;-68
2023/05/21 09:54:52;;;;;;;11.83;7.63;;;;;;;;;;7392653;19;20344;-68
2023/05/21 09:57:24;;;;;;;11.35;7.32;;;;;;;;;;7368527;19;20080;-69
2023/05/21 09:59:50;;;;;;;7.80;5.05;;;;;;;;;;7371877;19;20039;-68
2023/05/21 10:02:18;;;;;;;10.65;7.45;;;;;;;;;;7372369;19;20006;-68
2023/05/21 10:04:47;;;;;;;10.65;7.47;;;;;;;;;;7372079;19;20018;-68
2023/05/21 10:07:15;;;;;;;9.75;7.05;;;;;;;;;;7368880;19;20007;-68
2023/05/21 10:09:41;;;;;;;10.40;7.55;;;;;;;;;;7392251;19;20005;-68
2023/05/21 10:12:07;;;;;;;10.80;7.43;;;;;;;;;;7369591;19;20540;-69
2023/05/21 10:14:33;;;;;;;10.10;7.40;;;;;;;;;;7371178;19;20007;-68
2023/05/21 10:16:59;;;;;;;10.75;7.45;;;;;;;;;;7370399;19;20081;-68
2023/05/21 10:19:26;;;;;;;11.05;7.63;;;;;;;;;;7368466;19;20468;-68
2023/05/21 10:21:53;;;;;;;13.82;7.50;;;;;;;;;;7391218;19;20488;-68
2023/05/21 10:24:18;;;;;;;12.13;7.40;;;;;;;;;;7368879;19;20018;-68
2023/05/21 10:26:45;;;;;;;10.55;7.63;;;;;;;;;;7368206;19;20425;-69
2023/05/21 10:29:11;;;;;;;12.95;7.28;;;;;;;;;;7368116;19;20006;-68
2023/05/21 10:31:38;;;;;;;12.02;8.30;;;;;;;;;;7368284;19;20010;-68
2023/05/21 10:34:05;;;;;;;9.13;5.80;;;;;;;;;;7389624;19;20003;-69
2023/05/21 10:36:31;;;;;;;11.50;8.35;;;;;;;;;;7367424;19;20007;-68
2023/05/21 10:38:57;;;;;;;11.32;7.88;;;;;;;;;;7367900;19;20126;-69
2023/05/21 10:41:23;;;;;;;12.80;8.48;;;;;;;;;;7369733;19;20495;-68
2023/05/21 10:44:23;;;;;;;11.32;7.50;;;;;;;;;;7369666;19;20089;-68
2023/05/21 10:47:12;;;;;;;11.05;7.50;;;;;;;;;;7366709;19;20006;-68
2023/05/21 10:49:48;;;;;;;11.52;7.63;;;;;;;;;;7367031;19;20015;-69
2023/05/21 10:52:38;;;;;;;9.18;6.28;;;;;;;;;;7371682;19;20392;-68
2023/05/21 10:55:03;;;;;;;7.93;5.57;;;;;;;;;;7398475;19;19998;-69
2023/05/21 10:57:47;;;;;;;10.23;7.00;;;;;;;;;;7374610;19;20031;-68
2023/05/21 11:00:15;;;;;;;11.38;7.88;;;;;;;;;;7376291;19;20003;-69
2023/05/21 11:02:41;;;;;;;14.07;7.72;;;;;;;;;;7378611;19;20753;-70
2023/05/21 11:05:06;;;;;;;11.30;8.00;;;;;;;;;;7384698;19;20033;-68
2023/05/21 11:08:01;;;;;;;10.27;7.97;;;;;;;;;;7373985;19;20011;-68
2023/05/21 11:10:30;;;;;;;10.45;7.63;;;;;;;;;;7377860;19;20066;-68
2023/05/21 11:13:15;;;;;;;12.20;7.60;;;;;;;;;;7416807;19;20002;-69
2023/05/21 11:16:00;;;;;;;13.80;8.07;;;;;;;;;;7397712;19;20009;-68
2023/05/21 11:18:34;;;;;;;11.18;7.55;;;;;;;;;;7376674;19;20006;-68
2023/05/21 11:21:06;;;;;;;10.55;7.68;;;;;;;;;;7377152;19;20006;-68
2023/05/21 11:24:02;;;;;;;10.95;7.25;;;;;;;;;;7378552;19;20002;-69
2023/05/21 11:26:53;;;;;;;11.85;7.40;;;;;;;;;;7376221;19;20018;-68
2023/05/21 11:29:19;;;;;;;13.32;8.02;;;;;;;;;;7377746;19;20010;-70
2023/05/21 11:31:46;;;;;;;11.68;7.30;;;;;;;;;;7376897;19;20099;-69
2023/05/21 11:34:18;;;;;;;12.18;7.65;;;;;;;;;;7375112;19;20010;-68
2023/05/21 11:36:45;;;;;;;11.52;7.47;;;;;;;;;;7395933;19;20027;-69
2023/05/21 11:39:21;;;;;;;10.68;6.35;;;;;;;;;;7373475;19;20018;-69
2023/05/21 11:41:52;;;;;;;11.70;7.97;;;;;;;;;;7375414;19;20082;-69
2023/05/21 11:44:20;;;;;;;11.52;7.65;;;;;;;;;;7374498;19;20074;-69
2023/05/21 11:46:47;;;;;;;11.65;7.90;;;;;;;;;;7374116;19;20002;-69
2023/05/21 11:49:13;;;;;;;12.77;7.70;;;;;;;;;;7372851;19;20035;-68
2023/05/21 11:51:39;;;;;;;11.15;7.60;;;;;;;;;;7395857;19;20397;-69
2023/05/21 11:54:07;;;;;;;12.57;7.88;;;;;;;;;;7374356;19;20139;-68
2023/05/21 11:56:35;;;;;;;11.18;7.85;;;;;;;;;;7373830;19;20563;-68
2023/05/21 11:59:01;;;;;;;10.35;7.38;;;;;;;;;;7372881;19;20504;-68
2023/05/21 12:01:27;;;;;;;11.35;7.32;;;;;;;;;;7375277;19;20622;-67
2023/05/21 12:03:52;;;;;;;10.38;7.03;;;;;;;;;;7395001;19;20010;-67
2023/05/21 12:06:19;;;;;;;11.07;7.88;;;;;;;;;;7370969;19;20014;-68
2023/05/21 12:08:51;;;;;;;10.73;7.75;;;;;;;;;;7370296;19;20014;-67
2023/05/21 12:11:16;;;;;;;11.23;8.30;;;;;;;;;;7374931;19;20026;-67
2023/05/21 12:13:42;;;;;;;10.52;7.00;;;;;;;;;;7374929;19;20011;-67
2023/05/21 12:16:08;;;;;;;10.32;7.30;;;;;;;;;;7394563;19;20496;-67
2023/05/21 12:18:35;;;;;;;10.68;6.90;;;;;;;;;;7374733;19;20707;-67
2023/05/21 12:21:01;;;;;;;9.70;7.15;;;;;;;;;;7370882;19;20063;-68
2023/05/21 12:23:26;;;;;;;9.48;7.20;;;;;;;;;;7373873;19;20010;-68
2023/05/21 12:25:52;;;;;;;13.30;7.32;;;;;;;;;;7371247;19;20006;-68
2023/05/21 12:28:20;;;;;;;10.13;7.28;;;;;;;;;;7360860;19;20014;-68
2023/05/21 12:30:45;;;;;;;10.70;7.35;;;;;;;;;;7387982;19;20365;-68
2023/05/21 12:33:10;;;;;;;11.20;7.00;;;;;;;;;;7366506;19;20005;-67
2023/05/21 12:35:36;;;;;;;11.98;7.97;;;;;;;;;;7367367;19;20007;-68
2023/05/21 12:38:02;;;;;;;10.80;6.97;;;;;;;;;;7365485;19;20743;-68
2023/05/21 12:40:38;;;;;;;10.13;7.05;;;;;;;;;;7366646;19;20015;-68
2023/05/21 12:43:04;;;;;;;10.60;7.20;;;;;;;;;;7386408;19;20012;-69
2023/05/21 12:45:31;;;;;;;8.20;5.85;;;;;;;;;;7369335;19;20006;-68
2023/05/21 12:47:56;;;;;;;14.02;6.90;;;;;;;;;;7369446;19;20010;-69
2023/05/21 12:50:22;;;;;;;11.68;6.90;;;;;;;;;;7370376;19;20007;-69
2023/05/21 12:52:47;;;;;;;9.63;6.90;;;;;;;;;;7366679;19;19998;-69
2023/05/21 12:55:13;;;;;;;7.95;6.22;;;;;;;;;;7367733;19;20014;-70
2023/05/21 12:57:39;;;;;;;8.20;6.18;;;;;;;;;;7387469;19;20459;-69
2023/05/21 13:00:05;;;;;;;8.48;6.22;;;;;;;;;;7368256;19;20019;-68
2023/05/21 13:02:37;;;;;;;10.52;6.28;;;;;;;;;;7369432;19;20353;-68
2023/05/21 13:05:07;;;;;;;12.85;6.60;;;;;;;;;;7368217;19;20802;-69
2023/05/21 13:07:38;;;;;;;8.90;6.50;;;;;;;;;;7367625;19;20357;-68
2023/05/21 13:10:05;;;;;;;9.20;6.45;;;;;;;;;;7390362;19;20002;-67
2023/05/21 13:12:31;;;;;;;8.45;6.55;;;;;;;;;;7369151;19;20453;-68
2023/05/21 13:14:59;;;;;;;8.90;6.18;;;;;;;;;;7365200;19;20010;-69
2023/05/21 13:17:26;;;;;;;8.95;6.13;;;;;;;;;;7366761;19;20480;-68
2023/05/21 13:20:11;;;;;;;10.02;6.07;;;;;;;;;;7367353;19;20739;-68
2023/05/21 13:22:41;;;;;;;8.63;6.45;;;;;;;;;;7368239;19;20013;-69
2023/05/21 13:25:11;;;;;;;11.65;6.30;;;;;;;;;;7389738;19;20074;-69
2023/05/21 13:27:36;;;;;;;8.52;6.10;;;;;;;;;;7365627;19;20013;-68
2023/05/21 13:30:03;;;;;;;9.68;6.55;;;;;;;;;;7367859;19;20010;-68
2023/05/21 13:32:29;;;;;;;8.57;6.38;;;;;;;;;;7368154;19;20014;-68
2023/05/21 13:34:54;;;;;;;12.15;6.28;;;;;;;;;;7366326;19;20400;-68
2023/05/21 13:37:19;;;;;;;11.13;6.97;;;;;;;;;;7359377;19;20006;-68
2023/05/21 13:39:46;;;;;;;8.38;6.35;;;;;;;;;;7389507;19;20012;-68
2023/05/21 13:42:11;;;;;;;8.20;5.93;;;;;;;;;;7365659;19;20006;-68
2023/05/21 13:44:37;;;;;;;9.55;5.78;;;;;;;;;;7367330;19;20412;-69
2023/05/21 13:47:02;;;;;;;10.48;6.22;;;;;;;;;;7363264;19;20524;-69
2023/05/21 13:49:28;;;;;;;8.60;5.70;;;;;;;;;;7363888;19;20378;-69
2023/05/21 13:51:53;;;;;;;12.27;6.45;;;;;;;;;;7388586;19;20085;-69
2023/05/21 13:54:19;;;;;;;9.30;6.20;;;;;;;;;;7365698;19;20500;-69
2023/05/21 13:56:44;;;;;;;8.98;6.10;;;;;;;;;;7370654;19;20026;-68
2023/05/21 13:59:09;;;;;;;9.13;6.07;;;;;;;;;;7364912;19;20021;-68
2023/05/21 14:01:35;;;;;;;9.23;5.88;;;;;;;;;;7367900;19;20412;-69
2023/05/21 14:04:03;;;;;;;8.23;5.82;;;;;;;;;;7386461;19;20006;-69
2023/05/21 14:06:29;;;;;;;10.63;6.57;;;;;;;;;;7366120;19;20464;-69
2023/05/21 14:08:55;;;;;;;10.32;6.50;;;;;;;;;;7364237;19;20021;-70
2023/05/21 14:11:20;;;;;;;9.00;6.13;;;;;;;;;;7365169;19;20003;-69
2023/05/21 14:13:45;;;;;;;9.52;6.30;;;;;;;;;;7364643;19;20066;-68
2023/05/21 14:16:11;;;;;;;11.65;6.47;;;;;;;;;;7365162;19;20461;-67
2023/05/21 14:18:36;;;;;;;7.82;5.93;;;;;;;;;;7385431;19;20024;-68
2023/05/21 14:21:01;;;;;;;8.85;6.13;;;;;;;;;;7364679;19;20014;-67
2023/05/21 14:23:27;;;;;;;8.48;6.20;;;;;;;;;;7362757;19;20007;-67
2023/05/21 14:25:52;;;;;;;9.55;6.47;;;;;;;;;;7359927;19;20006;-68
2023/05/21 14:28:18;;;;;;;10.20;7.15;;;;;;;;;;7357286;19;20010;-67